Time;durP1;ratioP1;P1;durP2;ratioP2;P2;SDS_P1;SDS_P2;PMS_P1;PMS_P2;Temp;Humidity;BMP_temperature;BMP_pressure;BME280_temperature;BME280_humidity;BME280_pressure;Samples;Min_cycle;Max_cycle;Signal;HPM_P1;HPM_P2
2022/06/28 00:01:15;;;;;;;21.55;10.75;;;;;;;20.26;100.00;94995.69;6302897;22;20170;-80
2022/06/28 00:03:51;;;;;;;20.45;10.43;;;;;;;20.19;100.00;94994.38;6301698;22;20167;-80
2022/06/28 00:06:31;;;;;;;22.80;13.20;;;;;;;20.19;100.00;94994.38;6302325;22;20179;-79
2022/06/28 00:09:07;;;;;;;19.95;12.85;;;;;;;20.21;100.00;94989.59;6302372;22;20603;-80
2022/06/28 00:11:47;;;;;;;17.90;11.93;;;;;;;20.18;100.00;94982.22;6303225;22;20172;-80
2022/06/28 00:17:14;;;;;;;25.15;13.25;;;;;;;20.19;100.00;94986.47;6300870;22;20155;-79
2022/06/28 00:19:52;;;;;;;20.45;11.27;;;;;;;20.13;100.00;94987.53;6301829;22;20156;-78
2022/06/28 00:22:33;;;;;;;20.70;12.15;;;;;;;20.15;100.00;94986.19;6299341;22;20206;-78
2022/06/28 00:25:14;;;;;;;21.35;11.20;;;;;;;20.11;100.00;94992.28;6300381;22;20221;-78
2022/06/28 00:27:53;;;;;;;12.90;8.30;;;;;;;19.98;100.00;94996.28;6299399;22;20180;-79
2022/06/28 00:30:33;;;;;;;19.65;9.48;;;;;;;19.94;100.00;94989.19;6300257;22;20164;-79
2022/06/28 00:33:16;;;;;;;14.65;8.82;;;;;;;19.93;100.00;94993.66;6300757;22;20156;-79
2022/06/28 00:35:52;;;;;;;11.95;8.98;;;;;;;19.83;100.00;94985.75;6302340;22;20162;-79
2022/06/28 00:38:30;;;;;;;11.52;9.13;;;;;;;19.80;100.00;94987.06;6301625;22;20448;-80
2022/06/28 00:41:09;;;;;;;20.05;11.55;;;;;;;19.81;100.00;94986.03;6301472;22;20610;-79
2022/06/28 00:43:44;;;;;;;12.75;9.85;;;;;;;19.85;100.00;94988.13;6301796;22;20721;-80
2022/06/28 00:46:28;;;;;;;19.08;11.38;;;;;;;19.86;100.00;94990.50;6301046;22;20265;-79
2022/06/28 00:49:08;;;;;;;18.23;11.77;;;;;;;19.88;100.00;94990.25;6300886;22;20243;-79
2022/06/28 00:51:47;;;;;;;14.23;9.38;;;;;;;19.80;100.00;94981.00;6302395;22;20626;-80
2022/06/28 00:54:30;;;;;;;12.80;8.32;;;;;;;19.78;100.00;94994.47;6300832;22;20175;-79
2022/06/28 00:57:10;;;;;;;11.60;7.90;;;;;;;19.75;100.00;94994.22;6300553;22;20188;-79
2022/06/28 00:59:44;;;;;;;12.15;7.65;;;;;;;19.61;100.00;94993.19;6302599;22;20217;-82
2022/06/28 01:02:24;;;;;;;13.70;8.65;;;;;;;19.61;100.00;94987.91;6301671;22;20198;-79
2022/06/28 01:05:07;;;;;;;18.80;10.05;;;;;;;19.62;100.00;94984.22;6300841;22;20517;-79
2022/06/28 01:07:45;;;;;;;16.23;9.23;;;;;;;19.66;100.00;94991.31;6302304;22;20521;-79
2022/06/28 01:10:23;;;;;;;16.08;9.40;;;;;;;19.66;100.00;94991.31;6302080;22;20211;-79
2022/06/28 01:12:53;;;;;;;14.75;9.68;;;;;;;19.64;100.00;94990.00;6301416;22;20180;-80
2022/06/28 01:15:29;;;;;;;17.20;10.00;;;;;;;19.63;100.00;94989.22;6300375;22;20611;-79
2022/06/28 01:18:09;;;;;;;12.35;9.57;;;;;;;19.58;100.00;94978.69;6301376;22;20152;-79
2022/06/28 01:20:56;;;;;;;15.30;9.73;;;;;;;19.62;100.00;94979.75;6301317;22;20164;-79
2022/06/28 01:23:39;;;;;;;13.63;9.32;;;;;;;19.67;100.00;94986.84;6301975;22;20163;-79
2022/06/28 01:26:23;;;;;;;17.85;9.30;;;;;;;19.69;100.00;94987.34;6303731;22;20516;-79
2022/06/28 01:28:59;;;;;;;14.77;10.07;;;;;;;19.68;100.00;94983.94;6303786;22;20213;-82
2022/06/28 01:31:44;;;;;;;14.45;9.57;;;;;;;19.58;100.00;94972.59;6303251;22;20152;-81
2022/06/28 01:34:24;;;;;;;14.15;9.30;;;;;;;19.63;100.00;94978.66;6302020;22;20160;-80
2022/06/28 01:37:02;;;;;;;13.55;9.02;;;;;;;19.59;100.00;94980.28;6299692;22;20622;-80
2022/06/28 01:39:50;;;;;;;11.90;9.32;;;;;;;19.57;100.00;94986.84;6300435;22;20179;-81
2022/06/28 01:42:33;;;;;;;16.17;9.20;;;;;;;19.56;100.00;94986.06;6303117;22;20232;-80
2022/06/28 01:45:06;;;;;;;13.60;10.23;;;;;;;19.54;100.00;94988.16;6303286;22;20157;-79
2022/06/28 01:47:44;;;;;;;18.00;10.50;;;;;;;19.49;100.00;94982.91;6301606;22;20176;-79
2022/06/28 01:50:20;;;;;;;22.75;10.48;;;;;;;19.47;100.00;94985.03;6301455;22;20507;-79
2022/06/28 01:52:55;;;;;;;14.45;10.43;;;;;;;19.44;100.00;94982.13;6301282;22;20152;-79
2022/06/28 01:55:36;;;;;;;15.85;10.60;;;;;;;19.43;100.00;94980.53;6301847;22;20167;-79
2022/06/28 02:01:05;;;;;;;19.83;11.40;;;;;;;19.35;100.00;94966.00;6269201;22;20169;-78
2022/06/28 02:03:46;;;;;;;22.02;12.43;;;;;;;19.39;100.00;94976.84;6270126;22;20165;-78
2022/06/28 02:06:25;;;;;;;21.45;12.65;;;;;;;19.37;100.00;94978.91;6269573;22;20234;-78
2022/06/28 02:08:59;;;;;;;27.77;12.85;;;;;;;19.34;100.00;94982.06;6270049;22;20156;-78
2022/06/28 02:11:46;;;;;;;22.63;12.85;;;;;;;19.32;100.00;94981.56;6270434;22;20218;-79
2022/06/28 02:14:28;;;;;;;17.95;13.02;;;;;;;19.33;100.00;94980.50;6270830;22;20160;-78
2022/06/28 02:17:04;;;;;;;20.33;13.05;;;;;;;19.33;100.00;94981.31;6271451;22;20199;-78
2022/06/28 02:19:39;;;;;;;21.35;12.18;;;;;;;19.30;100.00;94979.19;6271013;22;20156;-78
2022/06/28 02:22:13;;;;;;;29.55;13.50;;;;;;;19.27;100.00;94977.88;6267905;22;20168;-77
2022/06/28 02:24:54;;;;;;;18.85;12.70;;;;;;;19.30;100.00;94983.69;6270695;22;20234;-78
2022/06/28 02:27:28;;;;;;;22.58;12.98;;;;;;;19.21;100.00;94976.31;6269970;22;20173;-78
2022/06/28 02:30:06;;;;;;;19.27;12.90;;;;;;;19.20;100.00;94973.91;6270882;22;20152;-79
2022/06/28 02:32:52;;;;;;;24.40;12.40;;;;;;;19.16;100.00;94973.63;6272103;22;20208;-79
2022/06/28 02:41:20;;;;;;;21.10;12.98;;;;;;;19.07;100.00;94983.16;6176791;23;20206;-79
2022/06/28 02:44:09;;;;;;;18.23;12.45;;;;;;;19.04;100.00;94974.97;6176779;23;20531;-79
2022/06/28 02:46:52;;;;;;;17.08;11.88;;;;;;;19.04;100.00;94982.88;6236791;22;20228;-79
2022/06/28 02:49:24;;;;;;;21.27;12.20;;;;;;;19.02;100.00;94982.31;6270325;22;20236;-79
2022/06/28 02:52:00;;;;;;;29.08;12.15;;;;;;;18.92;100.00;94983.13;6271891;22;20157;-79
2022/06/28 02:54:34;;;;;;;18.48;11.68;;;;;;;18.82;100.00;94977.81;6270531;22;20212;-79
2022/06/28 02:57:09;;;;;;;17.58;11.85;;;;;;;18.83;100.00;94982.03;6286433;22;20199;-80
2022/06/28 02:59:51;;;;;;;16.00;11.18;;;;;;;18.82;100.00;94974.38;6299543;22;20164;-79
2022/06/28 03:02:27;;;;;;;17.27;11.13;;;;;;;18.82;100.00;94974.38;6300397;22;20163;-78
2022/06/28 03:05:12;;;;;;;18.10;11.10;;;;;;;18.85;100.00;94973.88;6299664;22;20178;-78
2022/06/28 03:07:51;;;;;;;15.18;11.10;;;;;;;18.86;100.00;94975.47;6303042;22;20172;-79
2022/06/28 03:10:28;;;;;;;18.80;11.48;;;;;;;18.86;100.00;94973.63;6299210;22;20171;-79
2022/06/28 03:13:08;;;;;;;21.48;12.00;;;;;;;18.87;100.00;94977.84;6300835;22;20510;-78
2022/06/28 03:15:51;;;;;;;14.77;11.20;;;;;;;18.85;100.00;94974.66;6300304;22;20229;-78
2022/06/28 03:18:24;;;;;;;16.60;11.40;;;;;;;18.86;100.00;94973.63;6300334;22;20152;-78
2022/06/28 03:21:01;;;;;;;24.33;12.05;;;;;;;18.86;100.00;94972.81;6299961;22;20164;-80
2022/06/28 03:23:37;;;;;;;25.92;12.25;;;;;;;18.85;100.00;94972.03;6302642;22;20167;-80
2022/06/28 03:26:18;;;;;;;24.00;12.57;;;;;;;18.90;100.00;94971.25;6301654;22;20156;-80
2022/06/28 03:28:58;;;;;;;23.67;11.63;;;;;;;18.92;100.00;94967.31;6300633;22;20232;-80
2022/06/28 03:31:42;;;;;;;20.27;11.35;;;;;;;18.99;100.00;94977.59;6300405;22;20175;-78
2022/06/28 03:34:19;;;;;;;33.75;12.80;;;;;;;18.95;100.00;94966.78;6301331;22;20159;-79
2022/06/28 03:36:58;;;;;;;26.40;11.52;;;;;;;18.98;100.00;94974.16;6302972;22;20234;-79
2022/06/28 03:42:22;;;;;;;24.48;12.85;;;;;;;18.92;100.00;94991.03;6304297;22;20298;-80
2022/06/28 03:45:03;;;;;;;22.30;11.52;;;;;;;18.95;100.00;94982.59;6302490;22;20865;-80
2022/06/28 03:47:41;;;;;;;31.17;12.48;;;;;;;19.04;100.00;94988.94;6302492;22;20215;-80
2022/06/28 03:50:19;;;;;;;22.33;11.40;;;;;;;19.06;100.00;95000.00;6302090;22;20156;-79
2022/06/28 03:52:57;;;;;;;19.33;11.40;;;;;;;19.09;100.00;95001.31;6301642;22;20196;-78
2022/06/28 03:55:29;;;;;;;21.02;10.88;;;;;;;19.04;100.00;94996.84;6302198;22;20171;-78
2022/06/28 03:58:09;;;;;;;15.35;9.63;;;;;;;19.00;100.00;95000.25;6302239;22;20202;-78
2022/06/28 04:00:46;;;;;;;15.32;9.48;;;;;;;18.99;100.00;94996.03;6302428;22;20507;-79
2022/06/28 04:03:28;;;;;;;18.67;9.60;;;;;;;19.07;100.00;95003.44;6302586;22;20188;-80
2022/06/28 04:06:07;;;;;;;15.15;9.40;;;;;;;19.13;100.00;95007.66;6298236;22;20572;-78
2022/06/28 04:08:46;;;;;;;16.85;9.52;;;;;;;19.19;100.00;95003.97;6300647;22;20176;-79
2022/06/28 04:11:27;;;;;;;14.38;10.02;;;;;;;19.19;100.00;95007.38;6301867;22;20235;-79
2022/06/28 04:14:02;;;;;;;18.73;9.40;;;;;;;19.17;100.00;95020.03;6300918;22;20229;-79
2022/06/28 04:16:50;;;;;;;19.48;9.40;;;;;;;19.16;100.00;95018.44;6300113;22;20196;-79
2022/06/28 04:19:28;;;;;;;19.08;10.05;;;;;;;19.23;100.00;95021.63;6300660;22;20498;-78
2022/06/28 04:22:06;;;;;;;15.00;9.38;;;;;;;19.26;100.00;95015.84;6301252;22;20156;-77
2022/06/28 04:24:47;;;;;;;16.25;9.68;;;;;;;19.26;100.00;95028.22;6301138;22;20235;-79
2022/06/28 04:27:20;;;;;;;19.52;10.10;;;;;;;19.23;100.00;95029.53;6300840;22;20235;-80
2022/06/28 04:29:54;;;;;;;19.90;10.13;;;;;;;19.20;100.00;95027.41;6302674;22;20177;-78
2022/06/28 04:32:31;;;;;;;18.75;11.32;;;;;;;19.18;100.00;95020.81;6299335;22;20168;-79
2022/06/28 04:35:13;;;;;;;13.40;10.20;;;;;;;19.22;100.00;95027.13;6300669;22;20159;-80
2022/06/28 04:37:48;;;;;;;20.55;9.38;;;;;;;19.26;100.00;95015.84;6299294;22;20258;-80
2022/06/28 04:40:26;;;;;;;15.52;10.00;;;;;;;19.38;100.00;95022.69;6300829;22;20231;-80
2022/06/28 04:43:02;;;;;;;15.02;9.48;;;;;;;19.45;100.00;95028.53;6301692;22;20156;-79
2022/06/28 04:45:42;;;;;;;20.95;10.50;;;;;;;19.28;100.00;95016.34;6302419;22;20156;-78
2022/06/28 04:48:12;;;;;;;19.15;10.95;;;;;;;19.43;100.00;95027.97;6299536;22;20183;-77
2022/06/28 04:50:48;;;;;;;22.73;10.48;;;;;;;19.39;100.00;95019.03;6298704;22;20164;-78
2022/06/28 04:53:17;;;;;;;14.48;10.15;;;;;;;19.31;100.00;95025.56;6299159;22;20198;-79
2022/06/28 04:55:57;;;;;;;16.42;10.60;;;;;;;19.26;100.00;95022.94;6298995;22;20172;-79
2022/06/28 04:58:32;;;;;;;18.33;11.45;;;;;;;19.25;100.00;95030.06;6303225;22;20152;-80
2022/06/28 05:01:12;;;;;;;23.38;10.57;;;;;;;19.24;100.00;95019.78;6301003;22;20155;-80
2022/06/28 05:03:51;;;;;;;19.65;10.00;;;;;;;19.23;100.00;95021.63;6301804;22;20154;-80
2022/06/28 05:06:23;;;;;;;14.80;10.40;;;;;;;19.16;100.00;95021.06;6275076;22;20161;-79
2022/06/28 05:08:55;;;;;;;14.23;10.23;;;;;;;19.13;100.00;95021.59;6294810;22;20180;-79
2022/06/28 05:11:26;;;;;;;16.77;10.57;;;;;;;19.31;100.00;95025.56;6299442;22;20159;-80
2022/06/28 05:14:04;;;;;;;14.85;10.18;;;;;;;19.43;100.00;95027.97;6297426;22;20522;-79
2022/06/28 05:16:39;;;;;;;22.52;10.43;;;;;;;19.35;100.00;95026.63;6297476;22;20160;-80
2022/06/28 05:19:17;;;;;;;23.13;10.82;;;;;;;19.46;100.00;95022.19;6298036;22;20159;-80
2022/06/28 05:21:53;;;;;;;15.05;10.45;;;;;;;19.49;100.00;95019.81;6297102;22;20213;-80
2022/06/28 05:24:35;;;;;;;16.90;10.70;;;;;;;19.55;100.00;95020.59;6298315;22;20152;-79
2022/06/28 05:27:15;;;;;;;15.20;11.50;;;;;;;19.57;100.00;95015.84;6298923;22;20167;-79
2022/06/28 05:29:43;;;;;;;14.15;11.05;;;;;;;19.58;100.00;95014.81;6298216;22;20233;-79
2022/06/28 05:32:16;;;;;;;15.73;11.02;;;;;;;19.60;100.00;95018.75;6296044;22;20169;-79
2022/06/28 05:34:46;;;;;;;17.63;12.00;;;;;;;19.65;100.00;95023.25;6295293;22;20164;-77
2022/06/28 05:37:24;;;;;;;16.05;11.50;;;;;;;19.64;100.00;95035.63;6297575;22;20225;-79
2022/06/28 05:39:59;;;;;;;18.02;12.05;;;;;;;19.73;100.00;95027.97;6301333;22;20153;-85
2022/06/28 05:42:35;;;;;;;16.88;11.45;;;;;;;19.76;100.00;95019.53;6302956;22;20167;-85
2022/06/28 05:45:08;;;;;;;18.60;11.98;;;;;;;19.88;100.00;95021.91;6299783;22;20874;-82
2022/06/28 05:47:43;;;;;;;19.02;11.90;;;;;;;19.96;100.00;95021.34;6297562;22;20176;-79
2022/06/28 05:50:19;;;;;;;16.48;11.77;;;;;;;20.05;100.00;95032.94;6297565;22;20152;-79
2022/06/28 05:52:59;;;;;;;18.80;11.93;;;;;;;20.14;100.00;95032.16;6296965;22;20156;-80
2022/06/28 05:55:34;;;;;;;16.08;11.75;;;;;;;20.17;100.00;95026.31;6298580;22;20159;-78
2022/06/28 05:58:07;;;;;;;18.80;11.43;;;;;;;20.18;100.00;95040.31;6297588;22;20567;-79
2022/06/28 06:00:45;;;;;;;15.10;12.05;;;;;;;20.07;100.00;95044.03;6297555;22;20164;-80
2022/06/28 06:03:16;;;;;;;17.60;11.82;;;;;;;19.99;100.00;95050.66;6296272;22;20179;-79
2022/06/28 06:05:47;;;;;;;14.07;11.30;;;;;;;20.11;100.00;95045.88;6297302;22;20156;-78
2022/06/28 06:08:27;;;;;;;16.55;10.70;;;;;;;20.05;100.00;95039.03;6300767;22;20610;-83
2022/06/28 06:11:00;;;;;;;14.15;10.55;;;;;;;20.10;100.00;95039.00;6302778;22;20160;-84
2022/06/28 06:13:34;;;;;;;11.85;10.18;;;;;;;20.12;100.00;95028.16;6300674;22;20167;-84
2022/06/28 06:16:15;;;;;;;15.85;11.27;;;;;;;20.23;100.00;95033.16;6302814;22;20212;-85
2022/06/28 06:18:50;;;;;;;18.65;10.35;;;;;;;20.23;100.00;95014.69;6303450;22;20229;-83
2022/06/28 06:21:26;;;;;;;16.85;10.32;;;;;;;20.45;100.00;95030.22;6303510;22;20290;-83
2022/06/28 06:24:05;;;;;;;13.77;9.50;;;;;;;20.51;100.00;95015.16;6303325;22;20216;-83
2022/06/28 06:26:43;;;;;;;10.43;7.57;;;;;;;20.54;98.98;95010.13;6303751;22;20196;-83
2022/06/28 06:29:15;;;;;;;12.82;7.65;;;;;;;20.72;96.62;95014.78;6304892;22;20176;-83
2022/06/28 06:31:57;;;;;;;14.50;8.27;;;;;;;20.82;95.42;95022.66;6303151;22;20164;-83
2022/06/28 06:34:37;;;;;;;19.92;8.77;;;;;;;20.90;94.23;95023.94;6302562;22;20152;-84
2022/06/28 06:37:12;;;;;;;10.75;8.63;;;;;;;21.04;94.02;95019.63;6304012;22;20148;-84
2022/06/28 06:39:43;;;;;;;10.77;9.00;;;;;;;21.14;93.90;95016.16;6300844;22;20221;-82
2022/06/28 06:42:15;;;;;;;14.70;8.63;;;;;;;21.23;92.89;95020.59;6301916;22;20156;-83
2022/06/28 06:44:52;;;;;;;14.32;9.43;;;;;;;21.29;93.13;95011.56;6301407;22;20215;-83
2022/06/28 06:47:37;;;;;;;15.23;9.02;;;;;;;21.43;92.98;95014.38;6301041;22;20164;-87
2022/06/28 06:50:13;;;;;;;14.93;9.55;;;;;;;21.50;93.44;95004.25;6302523;22;20545;-79
2022/06/28 06:52:47;;;;;;;13.48;9.52;;;;;;;21.60;93.63;95004.19;6300367;22;20179;-80
2022/06/28 06:55:20;;;;;;;14.30;9.50;;;;;;;21.79;93.34;94996.34;6301289;22;20160;-80
2022/06/28 06:57:52;;;;;;;12.90;9.00;;;;;;;21.90;93.07;95000.50;6301650;22;20195;-84
2022/06/28 07:00:28;;;;;;;12.43;9.48;;;;;;;22.01;92.95;94994.81;6302403;22;20504;-81
2022/06/28 07:02:57;;;;;;;12.95;9.40;;;;;;;22.12;90.87;95000.78;6300169;22;20156;-81
2022/06/28 07:05:25;;;;;;;14.43;9.60;;;;;;;22.18;89.51;95004.19;6303762;22;20171;-80
2022/06/28 07:07:52;;;;;;;13.10;9.40;;;;;;;22.26;87.50;94991.09;6305488;22;20249;-85
2022/06/28 07:10:38;;;;;;;14.13;8.95;;;;;;;22.28;87.15;94996.91;6307554;22;20168;-83
2022/06/28 07:13:12;;;;;;;17.33;9.50;;;;;;;22.30;87.49;94997.44;6308056;22;20153;-79
2022/06/28 07:15:51;;;;;;;13.85;9.05;;;;;;;22.41;87.59;94993.59;6303568;22;20173;-82
2022/06/28 07:18:27;;;;;;;13.10;8.73;;;;;;;22.47;87.77;94991.66;6305221;22;20164;-78
2022/06/28 07:21:04;;;;;;;16.42;9.20;;;;;;;22.53;86.11;94993.19;6304720;22;20222;-79
2022/06/28 07:23:41;;;;;;;11.73;9.60;;;;;;;22.60;84.79;94990.94;6306223;22;20180;-77
2022/06/28 07:26:25;;;;;;;13.02;9.20;;;;;;;22.72;82.90;94995.88;6306851;22;20518;-78
2022/06/28 07:29:00;;;;;;;10.13;7.95;;;;;;;22.83;80.97;94995.44;6305592;22;20230;-78
2022/06/28 07:31:34;;;;;;;9.82;8.00;;;;;;;22.88;80.62;94992.75;6306315;22;20157;-78
2022/06/28 07:34:04;;;;;;;11.35;8.30;;;;;;;22.97;80.44;94990.25;6306437;22;20617;-78
2022/06/28 07:36:42;;;;;;;10.55;8.43;;;;;;;23.13;79.66;94992.38;6306046;22;20525;-78
2022/06/28 07:39:18;;;;;;;12.45;8.80;;;;;;;23.16;80.45;94998.97;6306182;22;20179;-78
2022/06/28 07:41:58;;;;;;;10.52;9.05;;;;;;;23.23;79.42;94995.97;6306205;22;20153;-82
2022/06/28 07:44:34;;;;;;;11.18;8.23;;;;;;;23.35;79.86;95002.38;6307096;22;20515;-83
2022/06/28 07:47:11;;;;;;;14.95;8.38;;;;;;;23.54;82.32;95008.50;6306772;22;20536;-83
2022/06/28 07:52:39;;;;;;;16.98;7.72;;;;;;;23.78;79.13;95007.59;6306776;22;20195;-83
2022/06/28 07:55:14;;;;;;;13.75;8.00;;;;;;;23.84;77.32;95001.13;6303807;22;20251;-83
2022/06/28 07:57:45;;;;;;;9.45;7.85;;;;;;;23.97;76.63;95000.34;6305879;22;20195;-83
2022/06/28 08:00:19;;;;;;;12.73;7.20;;;;;;;24.08;76.49;94999.06;6306726;22;20157;-84
2022/06/28 08:02:50;;;;;;;10.35;6.57;;;;;;;24.16;79.49;94985.13;6306791;22;20154;-84
2022/06/28 08:05:18;;;;;;;9.88;7.13;;;;;;;24.37;76.44;94988.97;6306195;22;20235;-85
2022/06/28 08:07:47;;;;;;;13.48;7.18;;;;;;;24.47;76.28;94985.34;6306497;22;20536;-84
2022/06/28 08:10:22;;;;;;;14.02;7.20;;;;;;;24.61;73.75;94991.44;6306961;22;20545;-85
2022/06/28 08:12:57;;;;;;;9.98;6.90;;;;;;;24.65;70.17;94976.44;6307474;22;20688;-85
2022/06/28 08:15:42;;;;;;;9.60;6.50;;;;;;;24.80;72.50;94981.47;6307010;22;20148;-85
2022/06/28 08:18:13;;;;;;;14.48;7.07;;;;;;;24.91;72.07;94976.72;6306934;22;20289;-84
2022/06/28 08:20:45;;;;;;;7.75;6.53;;;;;;;25.04;73.34;94981.22;6306611;22;20156;-85
2022/06/28 08:23:15;;;;;;;10.68;6.57;;;;;;;25.10;71.94;94969.38;6306801;22;20630;-84
2022/06/28 08:25:44;;;;;;;12.18;6.65;;;;;;;25.24;71.33;94978.09;6305954;22;20631;-85
2022/06/28 08:28:17;;;;;;;7.85;5.85;;;;;;;25.32;69.29;94982.69;6306725;22;20222;-85
2022/06/28 08:30:50;;;;;;;10.98;6.65;;;;;;;25.37;68.54;94983.38;6306999;22;20619;-83
2022/06/28 08:33:19;;;;;;;11.43;6.43;;;;;;;25.46;68.71;94985.31;6306051;22;20153;-83
2022/06/28 08:35:58;;;;;;;10.30;6.28;;;;;;;25.53;68.09;94994.47;6305668;22;20179;-83
2022/06/28 08:38:33;;;;;;;7.15;6.35;;;;;;;25.59;68.71;94992.47;6306978;22;20153;-82
2022/06/28 08:41:08;;;;;;;9.73;6.25;;;;;;;25.59;67.38;94989.81;6306465;22;20186;-83
2022/06/28 08:43:40;;;;;;;7.40;6.10;;;;;;;25.71;67.91;94985.53;6306543;22;20198;-83
2022/06/28 08:46:14;;;;;;;10.48;5.93;;;;;;;25.72;67.58;94984.41;6306127;22;20156;-82
2022/06/28 08:48:54;;;;;;;8.18;6.10;;;;;;;25.75;66.80;94985.69;6305615;22;20177;-84
2022/06/28 08:51:31;;;;;;;10.05;6.75;;;;;;;25.77;67.19;94992.28;6306099;22;20553;-82
2022/06/28 08:54:12;;;;;;;7.78;5.30;;;;;;;25.82;67.61;94994.03;6305998;22;20180;-81
2022/06/28 08:56:55;;;;;;;6.57;5.93;;;;;;;25.89;66.84;94986.38;6305619;22;20214;-81
2022/06/28 08:59:36;;;;;;;6.72;6.03;;;;;;;26.01;66.58;94985.81;6306164;22;20217;-83
2022/06/28 09:02:13;;;;;;;9.07;6.38;;;;;;;26.12;65.54;94987.91;6305174;22;20171;-84
2022/06/28 09:04:51;;;;;;;8.15;5.85;;;;;;;26.20;63.69;94981.88;6306451;22;20148;-82
2022/06/28 09:07:28;;;;;;;6.68;5.57;;;;;;;26.29;64.16;94987.25;6306212;22;20571;-83
2022/06/28 09:10:00;;;;;;;6.40;5.18;;;;;;;26.38;64.24;94996.81;6306417;22;20223;-82
2022/06/28 09:12:40;;;;;;;8.70;5.38;;;;;;;26.45;62.48;94994.50;6306309;22;20164;-83
2022/06/28 09:15:14;;;;;;;7.03;5.00;;;;;;;26.54;62.18;94980.41;6306464;22;20221;-83
2022/06/28 09:17:55;;;;;;;10.75;5.53;;;;;;;26.62;62.61;94988.44;6305366;22;20165;-82
2022/06/28 09:20:38;;;;;;;7.30;5.18;;;;;;;26.69;62.99;94972.78;6306119;22;20558;-83
2022/06/28 09:23:22;;;;;;;6.18;5.25;;;;;;;26.63;62.02;94959.88;6307911;22;20152;-83
2022/06/28 09:26:02;;;;;;;7.93;5.32;;;;;;;26.84;61.58;94980.34;6306735;22;20214;-83
2022/06/28 09:28:43;;;;;;;7.75;5.30;;;;;;;26.94;61.32;94982.72;6306443;22;20186;-83
2022/06/28 09:31:23;;;;;;;8.30;5.35;;;;;;;26.92;61.42;94963.56;6305431;22;20206;-84
2022/06/28 09:34:05;;;;;;;5.30;4.80;;;;;;;27.06;61.26;94982.09;6306254;22;20212;-83
2022/06/28 09:36:44;;;;;;;5.72;5.13;;;;;;;27.08;59.97;94990.56;6306361;22;20153;-85
2022/06/28 09:39:19;;;;;;;8.30;5.47;;;;;;;27.02;59.88;94981.94;6306470;22;20167;-84
2022/06/28 09:41:54;;;;;;;7.95;5.32;;;;;;;27.00;60.46;94980.69;6306507;22;20152;-84
2022/06/28 09:44:33;;;;;;;12.38;5.40;;;;;;;26.92;59.52;94974.25;6307062;22;20516;-85
2022/06/28 09:47:14;;;;;;;6.22;5.20;;;;;;;27.00;60.84;94975.34;6304596;22;20168;-86
2022/06/28 09:49:48;;;;;;;6.40;5.68;;;;;;;27.16;59.63;94976.44;6306003;22;20267;-84
2022/06/28 09:52:26;;;;;;;6.78;5.18;;;;;;;27.34;58.88;94967.34;6306887;22;20153;-85
2022/06/28 09:55:08;;;;;;;8.90;5.38;;;;;;;27.35;58.27;94944.09;6306218;22;20235;-84
2022/06/28 09:57:45;;;;;;;6.22;5.35;;;;;;;27.53;58.13;94954.44;6305890;22;20271;-84
2022/06/28 10:00:21;;;;;;;6.10;5.20;;;;;;;27.54;58.67;94963.25;6305654;22;20160;-84
2022/06/28 10:02:56;;;;;;;6.72;4.80;;;;;;;27.61;57.83;94966.25;6305563;22;20158;-82
2022/06/28 10:05:27;;;;;;;7.65;5.35;;;;;;;27.73;58.91;94966.38;6306111;22;20183;-82
2022/06/28 10:07:59;;;;;;;8.02;5.28;;;;;;;27.93;56.63;94963.03;6306109;22;20157;-83
2022/06/28 10:10:33;;;;;;;8.50;5.15;;;;;;;27.90;56.05;94952.97;6305509;22;20226;-82
2022/06/28 10:16:03;;;;;;;6.28;5.43;;;;;;;27.92;56.66;94955.31;6305580;22;20163;-83
2022/06/28 10:18:41;;;;;;;9.55;5.10;;;;;;;28.02;55.95;94952.31;6305595;22;20156;-83
2022/06/28 10:21:12;;;;;;;6.32;5.30;;;;;;;27.94;56.22;94953.88;6305463;22;20620;-83
2022/06/28 10:23:45;;;;;;;7.55;5.38;;;;;;;27.91;56.46;94954.53;6303173;22;20156;-83
2022/06/28 10:26:26;;;;;;;11.10;5.25;;;;;;;27.90;56.67;94954.84;6305473;22;20164;-83
2022/06/28 10:29:10;;;;;;;7.15;5.25;;;;;;;27.91;56.32;94951.84;6305578;22;20180;-82
2022/06/28 10:31:48;;;;;;;8.15;5.38;;;;;;;27.96;56.49;94941.00;6305910;22;20586;-83
2022/06/28 10:34:29;;;;;;;8.20;4.93;;;;;;;28.20;55.79;94947.69;6306213;22;20213;-82
2022/06/28 10:37:06;;;;;;;5.15;4.65;;;;;;;28.32;55.63;94951.25;6305075;22;20156;-82
2022/06/28 10:39:38;;;;;;;6.18;5.55;;;;;;;28.38;56.00;94946.50;6304998;22;20199;-83
2022/06/28 10:42:14;;;;;;;5.35;4.70;;;;;;;28.38;55.15;94939.25;6305128;22;20160;-82
2022/06/28 10:44:50;;;;;;;6.88;5.00;;;;;;;28.24;55.48;94928.00;6305659;22;20159;-82
2022/06/28 10:47:24;;;;;;;6.50;4.90;;;;;;;28.20;54.85;94934.34;6305891;22;20239;-82
2022/06/28 10:50:08;;;;;;;5.40;4.90;;;;;;;28.12;55.30;94938.59;6305731;22;20258;-82
2022/06/28 10:52:41;;;;;;;8.65;5.50;;;;;;;27.96;55.52;94938.34;6305290;22;20172;-83
2022/06/28 10:55:29;;;;;;;6.63;4.85;;;;;;;27.94;55.44;94926.34;6305569;22;20156;-83
2022/06/28 10:58:15;;;;;;;5.60;4.95;;;;;;;27.85;55.71;94926.41;6305223;22;20235;-83
2022/06/28 11:00:54;;;;;;;6.07;4.95;;;;;;;27.92;55.47;94925.91;6306024;22;20153;-84
2022/06/28 11:03:23;;;;;;;9.23;5.07;;;;;;;27.92;56.01;94916.00;6306121;22;20183;-83
2022/06/28 11:05:55;;;;;;;7.82;5.15;;;;;;;28.07;55.67;94918.19;6306275;22;20207;-84
2022/06/28 11:11:22;;;;;;;8.40;5.60;;;;;;;28.10;55.25;94906.84;6304239;22;20168;-82
2022/06/28 11:13:49;;;;;;;7.05;5.55;;;;;;;28.09;55.21;94899.91;6304788;22;20590;-83
2022/06/28 11:16:48;;;;;;;6.75;4.75;;;;;;;28.06;55.96;94905.91;6305375;22;20183;-83
2022/06/28 11:19:17;;;;;;;9.05;4.68;;;;;;;28.33;54.87;94907.34;6298570;22;20569;-84
2022/06/28 11:21:48;;;;;;;5.20;4.70;;;;;;;28.56;53.87;94916.66;6305142;22;20662;-83
2022/06/28 11:24:18;;;;;;;9.32;5.00;;;;;;;28.94;53.17;94907.75;6305269;22;20516;-84
2022/06/28 11:29:43;;;;;;;6.10;4.53;;;;;;;29.19;52.88;94918.25;6305546;22;20237;-84
2022/06/28 11:32:29;;;;;;;5.10;4.60;;;;;;;29.14;51.98;94910.44;6279723;22;20195;-83
2022/06/28 11:35:08;;;;;;;5.57;4.93;;;;;;;28.86;52.33;94900.59;6305208;22;20210;-83
2022/06/28 11:37:55;;;;;;;7.53;4.97;;;;;;;28.45;52.99;94912.81;6305222;22;20210;-84
2022/06/28 11:40:30;;;;;;;5.57;5.00;;;;;;;28.31;53.39;94908.78;6305378;22;20235;-83
2022/06/28 11:43:08;;;;;;;5.43;4.85;;;;;;;28.70;53.95;94913.75;6305452;22;20164;-83
2022/06/28 11:45:46;;;;;;;4.97;4.57;;;;;;;28.95;52.63;94891.38;6305163;22;20156;-82
2022/06/28 11:48:15;;;;;;;5.30;4.50;;;;;;;29.39;51.54;94913.22;6305489;22;20164;-82
2022/06/28 11:50:49;;;;;;;8.52;4.65;;;;;;;29.76;49.81;94912.97;6305636;22;20192;-84
2022/06/28 11:53:24;;;;;;;5.85;4.60;;;;;;;30.07;48.21;94931.25;6303203;22;20215;-85
2022/06/28 11:55:59;;;;;;;7.43;4.50;;;;;;;30.15;48.48;94935.75;6306438;22;20235;-84
2022/06/28 11:58:34;;;;;;;4.88;3.95;;;;;;;30.35;48.34;94944.81;6307223;22;20198;-84
2022/06/28 12:01:12;;;;;;;4.93;4.43;;;;;;;30.81;48.26;94939.00;6307015;22;20547;-84
2022/06/28 12:04:06;;;;;;;8.90;4.20;;;;;;;31.13;46.23;94941.84;6306835;22;20152;-84
2022/06/28 12:06:43;;;;;;;4.63;4.20;;;;;;;31.55;46.49;94939.56;6307740;22;20176;-84
2022/06/28 12:09:17;;;;;;;5.70;4.43;;;;;;;31.61;45.17;94936.31;6307345;22;20160;-84
2022/06/28 12:11:56;;;;;;;9.68;4.40;;;;;;;31.27;45.18;94936.88;6306707;22;20156;-83
2022/06/28 12:14:36;;;;;;;6.03;4.13;;;;;;;31.34;45.78;94929.78;6306666;22;20167;-82
2022/06/28 12:17:11;;;;;;;4.60;4.18;;;;;;;31.38;45.23;94927.19;6306954;22;20168;-82
2022/06/28 12:19:44;;;;;;;6.30;3.97;;;;;;;31.28;44.78;94923.13;6306780;22;20155;-84
2022/06/28 12:22:23;;;;;;;5.82;4.30;;;;;;;31.43;45.56;94919.66;6306514;22;20168;-84
2022/06/28 12:25:12;;;;;;;4.82;3.92;;;;;;;31.62;44.43;94916.38;6307019;22;20223;-84
2022/06/28 12:27:49;;;;;;;5.68;4.00;;;;;;;32.13;43.90;94922.69;6306889;22;20156;-83
2022/06/28 12:30:24;;;;;;;5.68;3.80;;;;;;;32.36;42.73;94923.63;6306847;22;20229;-83
2022/06/28 12:32:53;;;;;;;4.97;4.47;;;;;;;32.38;42.33;94926.72;6306800;22;20152;-83